sensor_id;sensor_type;location;lat;lon;timestamp;pressure;altitude;pressure_sealevel;temperature;humidity
55070;BME280;40967;52.070;8.596;2023-04-22T00:01:16;99839.47;;;12.11;60.99
55070;BME280;40967;52.070;8.596;2023-04-22T00:03:42;99847.09;;;12.09;61.42
55070;BME280;40967;52.070;8.596;2023-04-22T00:06:08;99834.47;;;12.00;61.26
55070;BME280;40967;52.070;8.596;2023-04-22T00:08:34;99859.91;;;12.09;61.34
55070;BME280;40967;52.070;8.596;2023-04-22T00:10:59;99839.19;;;11.94;61.54
55070;BME280;40967;52.070;8.596;2023-04-22T00:13:25;99865.44;;;12.04;61.93
55070;BME280;40967;52.070;8.596;2023-04-22T00:15:50;99866.59;;;11.98;62.07
55070;BME280;40967;52.070;8.596;2023-04-22T00:18:15;99860.41;;;11.92;62.21
55070;BME280;40967;52.070;8.596;2023-04-22T00:20:42;99840.19;;;11.80;62.15
55070;BME280;40967;52.070;8.596;2023-04-22T00:23:08;99848.88;;;11.82;62.46
55070;BME280;40967;52.070;8.596;2023-04-22T00:25:34;99868.13;;;11.85;62.91
55070;BME280;40967;52.070;8.596;2023-04-22T00:27:59;99871.22;;;11.79;63.15
55070;BME280;40967;52.070;8.596;2023-04-22T00:30:24;99868.88;;;11.72;63.12
55070;BME280;40967;52.070;8.596;2023-04-22T00:32:50;99871.34;;;11.69;63.54
55070;BME280;40967;52.070;8.596;2023-04-22T00:35:15;99856.84;;;11.55;63.60
55070;BME280;40967;52.070;8.596;2023-04-22T00:37:40;99849.84;;;11.48;64.46
55070;BME280;40967;52.070;8.596;2023-04-22T00:40:06;99855.88;;;11.45;64.93
55070;BME280;40967;52.070;8.596;2023-04-22T00:42:32;99847.25;;;11.38;64.53
55070;BME280;40967;52.070;8.596;2023-04-22T00:44:58;99854.81;;;11.41;64.54
55070;BME280;40967;52.070;8.596;2023-04-22T00:47:24;99848.66;;;11.36;64.87
55070;BME280;40967;52.070;8.596;2023-04-22T00:49:52;99859.16;;;11.42;64.67
55070;BME280;40967;52.070;8.596;2023-04-22T00:52:18;99855.69;;;11.37;64.92
55070;BME280;40967;52.070;8.596;2023-04-22T00:54:43;99857.09;;;11.34;64.95
55070;BME280;40967;52.070;8.596;2023-04-22T00:57:09;99852.22;;;11.31;64.25
55070;BME280;40967;52.070;8.596;2023-04-22T00:59:35;99836.81;;;11.27;64.46
55070;BME280;40967;52.070;8.596;2023-04-22T01:02:00;99846.56;;;11.28;64.34
55070;BME280;40967;52.070;8.596;2023-04-22T01:04:26;99849.53;;;11.31;64.28
55070;BME280;40967;52.070;8.596;2023-04-22T01:06:52;99851.44;;;11.31;64.07
55070;BME280;40967;52.070;8.596;2023-04-22T01:09:20;99827.47;;;11.14;64.13
55070;BME280;40967;52.070;8.596;2023-04-22T01:11:46;99847.16;;;11.25;64.18
55070;BME280;40967;52.070;8.596;2023-04-22T01:14:12;99825.09;;;11.08;65.11
55070;BME280;40967;52.070;8.596;2023-04-22T01:16:37;99833.84;;;11.05;65.16
55070;BME280;40967;52.070;8.596;2023-04-22T01:19:04;99837.09;;;11.02;65.66
55070;BME280;40967;52.070;8.596;2023-04-22T01:21:31;99828.72;;;10.98;65.75
55070;BME280;40967;52.070;8.596;2023-04-22T01:23:59;99850.16;;;11.00;65.23
55070;BME280;40967;52.070;8.596;2023-04-22T01:26:24;99847.19;;;11.01;65.37
55070;BME280;40967;52.070;8.596;2023-04-22T01:28:50;99841.03;;;10.91;65.94
55070;BME280;40967;52.070;8.596;2023-04-22T01:31:15;99847.25;;;10.91;66.10
55070;BME280;40967;52.070;8.596;2023-04-22T01:33:40;99851.91;;;10.91;66.00
55070;BME280;40967;52.070;8.596;2023-04-22T01:36:06;99842.19;;;10.85;66.25
55070;BME280;40967;52.070;8.596;2023-04-22T01:38:31;99805.50;;;10.64;66.26
55070;BME280;40967;52.070;8.596;2023-04-22T01:41:00;99834.91;;;10.80;66.18
55070;BME280;40967;52.070;8.596;2023-04-22T01:43:25;99840.09;;;10.77;66.32
55070;BME280;40967;52.070;8.596;2023-04-22T01:45:52;99824.25;;;10.60;66.39
55070;BME280;40967;52.070;8.596;2023-04-22T01:48:17;99828.91;;;10.55;66.59
55070;BME280;40967;52.070;8.596;2023-04-22T01:50:43;99818.94;;;10.50;67.13
55070;BME280;40967;52.070;8.596;2023-04-22T01:53:09;99822.50;;;10.46;67.17
55070;BME280;40967;52.070;8.596;2023-04-22T01:55:35;99836.25;;;10.54;67.14
55070;BME280;40967;52.070;8.596;2023-04-22T01:58:02;99806.88;;;10.32;67.18
55070;BME280;40967;52.070;8.596;2023-04-22T02:00:27;99827.16;;;10.40;67.08
55070;BME280;40967;52.070;8.596;2023-04-22T02:02:52;99820.16;;;10.34;67.33
55070;BME280;40967;52.070;8.596;2023-04-22T02:05:18;99830.69;;;10.41;67.35
55070;BME280;40967;52.070;8.596;2023-04-22T02:07:43;99834.19;;;10.41;67.04
55070;BME280;40967;52.070;8.596;2023-04-22T02:10:09;99824.78;;;10.34;67.43
55070;BME280;40967;52.070;8.596;2023-04-22T02:12:35;99828.88;;;10.31;67.29
55070;BME280;40967;52.070;8.596;2023-04-22T02:15:00;99820.50;;;10.27;67.84
55070;BME280;40967;52.070;8.596;2023-04-22T02:17:26;99822.44;;;10.22;68.06
55070;BME280;40967;52.070;8.596;2023-04-22T02:19:51;99812.50;;;10.12;68.07
55070;BME280;40967;52.070;8.596;2023-04-22T02:22:18;99819.53;;;10.13;68.11
55070;BME280;40967;52.070;8.596;2023-04-22T02:24:43;99832.75;;;10.20;68.13
55070;BME280;40967;52.070;8.596;2023-04-22T02:27:09;99815.22;;;10.07;68.51
55070;BME280;40967;52.070;8.596;2023-04-22T02:29:34;99823.88;;;10.09;68.22
55070;BME280;40967;52.070;8.596;2023-04-22T02:31:59;99810.34;;;10.04;68.33
55070;BME280;40967;52.070;8.596;2023-04-22T02:34:25;99835.53;;;10.10;68.74
55070;BME280;40967;52.070;8.596;2023-04-22T02:36:51;99805.03;;;9.89;69.20
55070;BME280;40967;52.070;8.596;2023-04-22T02:39:16;99833.94;;;10.04;69.57
55070;BME280;40967;52.070;8.596;2023-04-22T02:41:41;99825.84;;;9.99;69.48
55070;BME280;40967;52.070;8.596;2023-04-22T02:44:07;99834.00;;;9.99;69.82
55070;BME280;40967;52.070;8.596;2023-04-22T02:46:33;99821.31;;;9.89;69.86
55070;BME280;40967;52.070;8.596;2023-04-22T02:48:58;99814.03;;;9.85;70.17
55070;BME280;40967;52.070;8.596;2023-04-22T02:51:23;99810.25;;;9.81;69.94
55070;BME280;40967;52.070;8.596;2023-04-22T02:53:48;99808.31;;;9.86;69.93
55070;BME280;40967;52.070;8.596;2023-04-22T02:56:14;99822.66;;;9.92;69.76
55070;BME280;40967;52.070;8.596;2023-04-22T02:58:39;99815.59;;;9.91;69.47
55070;BME280;40967;52.070;8.596;2023-04-22T03:01:04;99816.66;;;9.95;69.52
55070;BME280;40967;52.070;8.596;2023-04-22T03:03:30;99824.50;;;9.96;69.87
55070;BME280;40967;52.070;8.596;2023-04-22T03:05:56;99811.56;;;9.88;70.02
55070;BME280;40967;52.070;8.596;2023-04-22T03:08:21;99821.03;;;9.91;70.43
55070;BME280;40967;52.070;8.596;2023-04-22T03:10:46;99817.53;;;9.85;71.56
55070;BME280;40967;52.070;8.596;2023-04-22T03:13:12;99824.53;;;9.91;71.97
55070;BME280;40967;52.070;8.596;2023-04-22T03:15:39;99811.38;;;9.80;72.40
55070;BME280;40967;52.070;8.596;2023-04-22T03:18:04;99807.56;;;9.81;71.63
55070;BME280;40967;52.070;8.596;2023-04-22T03:20:30;99818.59;;;9.89;71.46
55070;BME280;40967;52.070;8.596;2023-04-22T03:22:55;99824.25;;;9.93;71.28
55070;BME280;40967;52.070;8.596;2023-04-22T03:25:20;99818.03;;;9.92;71.32
55070;BME280;40967;52.070;8.596;2023-04-22T03:27:45;99819.66;;;9.93;71.35
55070;BME280;40967;52.070;8.596;2023-04-22T03:30:11;99794.00;;;9.81;70.87
55070;BME280;40967;52.070;8.596;2023-04-22T03:32:36;99797.25;;;9.83;70.87
55070;BME280;40967;52.070;8.596;2023-04-22T03:35:02;99788.25;;;9.87;70.57
55070;BME280;40967;52.070;8.596;2023-04-22T03:37:27;99807.44;;;9.96;70.65
55070;BME280;40967;52.070;8.596;2023-04-22T03:39:52;99805.25;;;9.98;71.40
55070;BME280;40967;52.070;8.596;2023-04-22T03:42:18;99792.31;;;9.90;70.92
55070;BME280;40967;52.070;8.596;2023-04-22T03:44:43;99787.22;;;9.83;70.89
55070;BME280;40967;52.070;8.596;2023-04-22T03:47:08;99796.34;;;9.92;70.81
55070;BME280;40967;52.070;8.596;2023-04-22T03:49:34;99801.97;;;10.01;70.99
55070;BME280;40967;52.070;8.596;2023-04-22T03:51:59;99810.91;;;10.01;71.73
55070;BME280;40967;52.070;8.596;2023-04-22T03:54:25;99792.56;;;9.93;72.03
55070;BME280;40967;52.070;8.596;2023-04-22T03:56:51;99792.81;;;9.97;72.02
55070;BME280;40967;52.070;8.596;2023-04-22T03:59:17;99811.16;;;10.05;71.81
55070;BME280;40967;52.070;8.596;2023-04-22T04:01:45;99809.56;;;10.04;71.48
55070;BME280;40967;52.070;8.596;2023-04-22T04:04:10;99782.03;;;9.87;71.97
55070;BME280;40967;52.070;8.596;2023-04-22T04:06:35;99803.34;;;9.98;71.82
55070;BME280;40967;52.070;8.596;2023-04-22T04:09:01;99803.66;;;9.97;71.72
55070;BME280;40967;52.070;8.596;2023-04-22T04:11:26;99805.75;;;10.05;71.43
55070;BME280;40967;52.070;8.596;2023-04-22T04:13:51;99799.78;;;10.03;71.72
55070;BME280;40967;52.070;8.596;2023-04-22T04:16:17;99798.47;;;10.00;72.38
55070;BME280;40967;52.070;8.596;2023-04-22T04:18:42;99794.41;;;9.98;71.71
55070;BME280;40967;52.070;8.596;2023-04-22T04:21:07;99808.75;;;10.03;71.45
55070;BME280;40967;52.070;8.596;2023-04-22T04:23:33;99769.09;;;9.79;71.25
55070;BME280;40967;52.070;8.596;2023-04-22T04:25:58;99792.84;;;9.92;71.36
55070;BME280;40967;52.070;8.596;2023-04-22T04:28:27;99798.50;;;9.95;72.05
55070;BME280;40967;52.070;8.596;2023-04-22T04:30:54;99804.13;;;10.04;72.00
55070;BME280;40967;52.070;8.596;2023-04-22T04:33:19;99803.31;;;10.03;71.88
55070;BME280;40967;52.070;8.596;2023-04-22T04:35:45;99806.56;;;10.05;72.39
55070;BME280;40967;52.070;8.596;2023-04-22T04:38:12;99789.28;;;9.96;72.12
55070;BME280;40967;52.070;8.596;2023-04-22T04:40:38;99791.41;;;9.99;71.97
55070;BME280;40967;52.070;8.596;2023-04-22T04:43:04;99799.75;;;10.08;71.66
55070;BME280;40967;52.070;8.596;2023-04-22T04:45:32;99791.34;;;10.09;72.55
55070;BME280;40967;52.070;8.596;2023-04-22T04:47:58;99770.31;;;9.96;72.77
55070;BME280;40967;52.070;8.596;2023-04-22T04:50:24;99769.69;;;10.04;72.48
55070;BME280;40967;52.070;8.596;2023-04-22T04:52:52;99768.38;;;10.02;72.79
55070;BME280;40967;52.070;8.596;2023-04-22T04:55:17;99791.34;;;10.14;72.64
55070;BME280;40967;52.070;8.596;2023-04-22T04:57:46;99760.78;;;10.04;72.43
55070;BME280;40967;52.070;8.596;2023-04-22T05:00:12;99787.75;;;10.19;73.12
55070;BME280;40967;52.070;8.596;2023-04-22T05:02:38;99782.06;;;10.20;73.60
55070;BME280;40967;52.070;8.596;2023-04-22T05:05:04;99779.34;;;10.20;73.30
55070;BME280;40967;52.070;8.596;2023-04-22T05:07:30;99778.28;;;10.21;72.95
55070;BME280;40967;52.070;8.596;2023-04-22T05:09:56;99772.03;;;10.21;73.08
55070;BME280;40967;52.070;8.596;2023-04-22T05:12:21;99777.69;;;10.24;72.81
55070;BME280;40967;52.070;8.596;2023-04-22T05:14:46;99779.88;;;10.22;72.95
55070;BME280;40967;52.070;8.596;2023-04-22T05:17:12;99788.19;;;10.31;73.41
55070;BME280;40967;52.070;8.596;2023-04-22T05:19:38;99800.06;;;10.40;73.88
55070;BME280;40967;52.070;8.596;2023-04-22T05:22:03;99793.28;;;10.38;74.32
55070;BME280;40967;52.070;8.596;2023-04-22T05:24:29;99796.47;;;10.45;74.49
55070;BME280;40967;52.070;8.596;2023-04-22T05:26:54;99795.09;;;10.47;74.54
55070;BME280;40967;52.070;8.596;2023-04-22T05:29:20;99797.72;;;10.57;74.99
55070;BME280;40967;52.070;8.596;2023-04-22T05:31:46;99805.78;;;10.62;74.89
55070;BME280;40967;52.070;8.596;2023-04-22T05:34:11;99802.00;;;10.63;75.37
55070;BME280;40967;52.070;8.596;2023-04-22T05:36:36;99803.50;;;10.74;75.22
55070;BME280;40967;52.070;8.596;2023-04-22T05:39:02;99795.66;;;10.73;75.17
55070;BME280;40967;52.070;8.596;2023-04-22T05:41:28;99779.94;;;10.70;75.41
55070;BME280;40967;52.070;8.596;2023-04-22T05:43:53;99802.47;;;10.94;75.52
55070;BME280;40967;52.070;8.596;2023-04-22T05:46:18;99799.41;;;11.00;75.74
55070;BME280;40967;52.070;8.596;2023-04-22T05:48:44;99776.44;;;10.93;75.82
55070;BME280;40967;52.070;8.596;2023-04-22T05:51:09;99798.47;;;11.10;75.86
55070;BME280;40967;52.070;8.596;2023-04-22T05:53:34;99810.75;;;11.26;75.97
55070;BME280;40967;52.070;8.596;2023-04-22T05:56:00;99802.56;;;11.31;75.48
55070;BME280;40967;52.070;8.596;2023-04-22T05:58:25;99800.06;;;11.34;75.22
55070;BME280;40967;52.070;8.596;2023-04-22T06:00:50;99798.28;;;11.43;75.16
55070;BME280;40967;52.070;8.596;2023-04-22T06:03:16;99786.56;;;11.48;74.86
55070;BME280;40967;52.070;8.596;2023-04-22T06:05:41;99799.59;;;11.70;75.17
55070;BME280;40967;52.070;8.596;2023-04-22T06:08:08;99778.16;;;11.68;74.63
55070;BME280;40967;52.070;8.596;2023-04-22T06:10:33;99796.38;;;11.86;74.91
55070;BME280;40967;52.070;8.596;2023-04-22T06:15:12;99795.72;;;12.08;74.36
55070;BME280;40967;52.070;8.596;2023-04-22T06:17:37;99802.63;;;12.19;74.18
55070;BME280;40967;52.070;8.596;2023-04-22T06:20:04;99801.94;;;12.27;73.95
55070;BME280;40967;52.070;8.596;2023-04-22T06:22:30;99791.69;;;12.37;73.57
55070;BME280;40967;52.070;8.596;2023-04-22T06:24:56;99795.03;;;12.48;73.52
55070;BME280;40967;52.070;8.596;2023-04-22T06:27:21;99794.84;;;12.58;72.84
55070;BME280;40967;52.070;8.596;2023-04-22T06:29:46;99787.81;;;12.71;72.62
55070;BME280;40967;52.070;8.596;2023-04-22T06:32:12;99786.22;;;12.83;72.39
55070;BME280;40967;52.070;8.596;2023-04-22T06:34:37;99779.19;;;12.96;71.88
55070;BME280;40967;52.070;8.596;2023-04-22T06:37:03;99776.78;;;13.08;71.57
55070;BME280;40967;52.070;8.596;2023-04-22T06:39:28;99774.03;;;13.21;71.70
55070;BME280;40967;52.070;8.596;2023-04-22T06:41:54;99761.53;;;13.34;71.58
55070;BME280;40967;52.070;8.596;2023-04-22T06:44:20;99760.56;;;13.52;71.13
55070;BME280;40967;52.070;8.596;2023-04-22T06:46:45;99765.38;;;13.68;70.37
55070;BME280;40967;52.070;8.596;2023-04-22T06:49:11;99767.22;;;13.82;69.98
55070;BME280;40967;52.070;8.596;2023-04-22T06:51:36;99772.16;;;13.93;69.30
55070;BME280;40967;52.070;8.596;2023-04-22T06:54:02;99778.16;;;14.04;69.19
55070;BME280;40967;52.070;8.596;2023-04-22T06:56:27;99780.81;;;14.17;68.67
55070;BME280;40967;52.070;8.596;2023-04-22T06:58:54;99786.88;;;14.28;68.04
55070;BME280;40967;52.070;8.596;2023-04-22T07:01:19;99782.75;;;14.39;67.43
55070;BME280;40967;52.070;8.596;2023-04-22T07:03:45;99785.06;;;14.45;66.74
55070;BME280;40967;52.070;8.596;2023-04-22T07:06:10;99779.13;;;14.52;66.27
55070;BME280;40967;52.070;8.596;2023-04-22T07:08:36;99777.88;;;14.58;65.78
55070;BME280;40967;52.070;8.596;2023-04-22T07:11:01;99774.72;;;14.64;65.35
55070;BME280;40967;52.070;8.596;2023-04-22T07:13:27;99775.88;;;14.80;64.99
55070;BME280;40967;52.070;8.596;2023-04-22T07:15:53;99773.19;;;14.89;64.69
55070;BME280;40967;52.070;8.596;2023-04-22T07:18:18;99773.09;;;15.03;64.34
55070;BME280;40967;52.070;8.596;2023-04-22T07:20:44;99769.59;;;15.19;64.21
55070;BME280;40967;52.070;8.596;2023-04-22T07:23:09;99769.13;;;15.34;63.86
55070;BME280;40967;52.070;8.596;2023-04-22T07:25:34;99772.13;;;15.55;63.65
55070;BME280;40967;52.070;8.596;2023-04-22T07:28:00;99774.69;;;15.77;63.18
55070;BME280;40967;52.070;8.596;2023-04-22T07:30:25;99776.47;;;15.90;62.15
55070;BME280;40967;52.070;8.596;2023-04-22T07:32:51;99771.78;;;16.08;61.13
55070;BME280;40967;52.070;8.596;2023-04-22T07:35:16;99763.25;;;16.26;61.02
55070;BME280;40967;52.070;8.596;2023-04-22T07:37:42;99765.59;;;16.45;60.60
55070;BME280;40967;52.070;8.596;2023-04-22T07:40:08;99757.03;;;16.63;59.72
55070;BME280;40967;52.070;8.596;2023-04-22T07:42:39;99763.59;;;16.79;58.70
55070;BME280;40967;52.070;8.596;2023-04-22T07:45:05;99763.84;;;16.95;58.61
55070;BME280;40967;52.070;8.596;2023-04-22T07:47:31;99773.25;;;17.15;58.06
55070;BME280;40967;52.070;8.596;2023-04-22T07:49:57;99759.13;;;17.33;57.88
55070;BME280;40967;52.070;8.596;2023-04-22T07:52:22;99762.72;;;17.54;57.04
55070;BME280;40967;52.070;8.596;2023-04-22T07:54:48;99767.59;;;17.69;56.47
55070;BME280;40967;52.070;8.596;2023-04-22T07:57:13;99761.31;;;17.89;55.97
55070;BME280;40967;52.070;8.596;2023-04-22T07:59:39;99764.03;;;18.10;55.53
55070;BME280;40967;52.070;8.596;2023-04-22T08:02:05;99751.25;;;18.26;54.90
55070;BME280;40967;52.070;8.596;2023-04-22T08:04:30;99757.75;;;18.42;54.13
55070;BME280;40967;52.070;8.596;2023-04-22T08:06:55;99754.69;;;18.56;53.40
55070;BME280;40967;52.070;8.596;2023-04-22T08:09:21;99746.16;;;18.69;53.08
55070;BME280;40967;52.070;8.596;2023-04-22T08:11:51;99743.19;;;18.86;53.05
55070;BME280;40967;52.070;8.596;2023-04-22T08:14:16;99741.25;;;18.99;52.23
55070;BME280;40967;52.070;8.596;2023-04-22T08:16:42;99750.28;;;19.11;51.65
55070;BME280;40967;52.070;8.596;2023-04-22T08:19:07;99744.75;;;19.23;51.62
55070;BME280;40967;52.070;8.596;2023-04-22T08:21:32;99736.22;;;19.37;51.65
55070;BME280;40967;52.070;8.596;2023-04-22T08:23:58;99745.78;;;19.55;51.90
55070;BME280;40967;52.070;8.596;2023-04-22T08:26:23;99739.56;;;19.70;51.41
55070;BME280;40967;52.070;8.596;2023-04-22T08:28:49;99744.88;;;19.91;50.97
55070;BME280;40967;52.070;8.596;2023-04-22T08:31:14;99741.03;;;20.07;50.58
55070;BME280;40967;52.070;8.596;2023-04-22T08:33:39;99740.84;;;20.28;49.49
55070;BME280;40967;52.070;8.596;2023-04-22T08:36:06;99738.56;;;20.46;47.94
55070;BME280;40967;52.070;8.596;2023-04-22T08:38:32;99739.13;;;20.67;46.90
55070;BME280;40967;52.070;8.596;2023-04-22T08:40:58;99723.09;;;20.88;46.45
55070;BME280;40967;52.070;8.596;2023-04-22T08:43:25;99725.59;;;21.08;45.33
55070;BME280;40967;52.070;8.596;2023-04-22T08:45:51;99729.22;;;21.28;44.27
55070;BME280;40967;52.070;8.596;2023-04-22T08:48:18;99723.03;;;21.50;43.83
55070;BME280;40967;52.070;8.596;2023-04-22T08:50:45;99718.22;;;21.82;43.94
55070;BME280;40967;52.070;8.596;2023-04-22T08:53:12;99726.28;;;22.09;43.46
55070;BME280;40967;52.070;8.596;2023-04-22T08:55:38;99720.47;;;22.37;43.22
55070;BME280;40967;52.070;8.596;2023-04-22T08:58:05;99739.88;;;22.60;42.84
55070;BME280;40967;52.070;8.596;2023-04-22T09:00:31;99722.59;;;22.66;41.27
55070;BME280;40967;52.070;8.596;2023-04-22T09:03:00;99725.56;;;22.77;40.68
55070;BME280;40967;52.070;8.596;2023-04-22T09:05:28;99733.72;;;22.92;40.14
55070;BME280;40967;52.070;8.596;2023-04-22T09:07:54;99723.47;;;22.93;39.99
55070;BME280;40967;52.070;8.596;2023-04-22T09:10:19;99724.31;;;22.97;39.60
55070;BME280;40967;52.070;8.596;2023-04-22T09:12:45;99721.47;;;23.16;39.40
55070;BME280;40967;52.070;8.596;2023-04-22T09:15:12;99715.91;;;23.38;39.14
55070;BME280;40967;52.070;8.596;2023-04-22T09:17:38;99703.56;;;23.62;38.71
55070;BME280;40967;52.070;8.596;2023-04-22T09:20:05;99705.28;;;23.74;38.42
55070;BME280;40967;52.070;8.596;2023-04-22T09:22:39;99710.13;;;23.80;38.30
55070;BME280;40967;52.070;8.596;2023-04-22T09:25:16;99704.69;;;23.87;37.85
55070;BME280;40967;52.070;8.596;2023-04-22T09:27:42;99696.16;;;23.99;37.94
55070;BME280;40967;52.070;8.596;2023-04-22T09:30:10;99687.28;;;23.90;37.23
55070;BME280;40967;52.070;8.596;2023-04-22T09:32:36;99695.00;;;23.74;37.79
55070;BME280;40967;52.070;8.596;2023-04-22T09:35:01;99689.41;;;23.71;37.78
55070;BME280;40967;52.070;8.596;2023-04-22T09:37:27;99684.88;;;23.85;37.59
55070;BME280;40967;52.070;8.596;2023-04-22T09:39:53;99683.19;;;24.10;37.48
55070;BME280;40967;52.070;8.596;2023-04-22T09:42:19;99682.22;;;24.29;37.50
55070;BME280;40967;52.070;8.596;2023-04-22T09:44:47;99690.75;;;24.53;36.98
55070;BME280;40967;52.070;8.596;2023-04-22T09:47:13;99678.56;;;24.61;37.08
55070;BME280;40967;52.070;8.596;2023-04-22T09:49:39;99676.59;;;24.62;36.82
55070;BME280;40967;52.070;8.596;2023-04-22T09:52:09;99685.88;;;24.80;36.50
55070;BME280;40967;52.070;8.596;2023-04-22T09:54:36;99672.00;;;24.80;35.85
55070;BME280;40967;52.070;8.596;2023-04-22T09:57:01;99677.91;;;24.75;35.90
55070;BME280;40967;52.070;8.596;2023-04-22T09:59:28;99674.38;;;24.82;35.56
55070;BME280;40967;52.070;8.596;2023-04-22T10:01:56;99668.09;;;24.85;35.67
55070;BME280;40967;52.070;8.596;2023-04-22T10:04:22;99670.88;;;24.92;35.58
55070;BME280;40967;52.070;8.596;2023-04-22T10:06:50;99668.19;;;25.02;35.35
55070;BME280;40967;52.070;8.596;2023-04-22T10:09:17;99655.88;;;25.00;35.34
55070;BME280;40967;52.070;8.596;2023-04-22T10:11:44;99663.00;;;24.97;35.47
55070;BME280;40967;52.070;8.596;2023-04-22T10:14:09;99669.41;;;25.05;35.38
55070;BME280;40967;52.070;8.596;2023-04-22T10:16:38;99648.41;;;25.11;35.23
55070;BME280;40967;52.070;8.596;2023-04-22T10:19:06;99657.56;;;25.15;35.39
55070;BME280;40967;52.070;8.596;2023-04-22T10:21:33;99652.72;;;25.01;34.77
55070;BME280;40967;52.070;8.596;2023-04-22T10:24:02;99643.16;;;24.95;34.60
55070;BME280;40967;52.070;8.596;2023-04-22T10:29:08;99641.41;;;24.73;35.39
55070;BME280;40967;52.070;8.596;2023-04-22T10:31:37;99633.13;;;24.77;35.74
55070;BME280;40967;52.070;8.596;2023-04-22T10:34:13;99634.44;;;24.93;35.43
55070;BME280;40967;52.070;8.596;2023-04-22T10:39:17;99634.81;;;24.95;35.05
55070;BME280;40967;52.070;8.596;2023-04-22T10:41:50;99628.50;;;24.95;34.79
55070;BME280;40967;52.070;8.596;2023-04-22T10:44:15;99634.56;;;25.14;34.79
55070;BME280;40967;52.070;8.596;2023-04-22T10:49:20;99622.53;;;24.93;34.10
55070;BME280;40967;52.070;8.596;2023-04-22T10:57:09;99620.03;;;24.74;34.48
55070;BME280;40967;52.070;8.596;2023-04-22T11:03:12;99608.63;;;24.89;35.05
55070;BME280;40967;52.070;8.596;2023-04-22T11:05:39;99604.28;;;24.92;34.60
55070;BME280;40967;52.070;8.596;2023-04-22T11:08:13;99603.97;;;25.04;34.61
55070;BME280;40967;52.070;8.596;2023-04-22T11:10:45;99605.56;;;25.05;34.32
55070;BME280;40967;52.070;8.596;2023-04-22T11:13:22;99591.56;;;24.84;34.94
55070;BME280;40967;52.070;8.596;2023-04-22T11:15:49;99595.34;;;24.61;34.50
55070;BME280;40967;52.070;8.596;2023-04-22T11:20:45;99592.94;;;24.60;34.63
55070;BME280;40967;52.070;8.596;2023-04-22T11:23:19;99599.47;;;24.82;34.82
55070;BME280;40967;52.070;8.596;2023-04-22T11:25:45;99587.59;;;24.85;34.39
55070;BME280;40967;52.070;8.596;2023-04-22T11:28:11;99573.75;;;24.92;34.02
55070;BME280;40967;52.070;8.596;2023-04-22T11:30:36;99584.09;;;24.95;34.39
55070;BME280;40967;52.070;8.596;2023-04-22T11:33:02;99570.28;;;25.05;34.12
55070;BME280;40967;52.070;8.596;2023-04-22T11:35:32;99573.13;;;25.19;33.74
55070;BME280;40967;52.070;8.596;2023-04-22T11:38:02;99565.25;;;25.35;33.63
55070;BME280;40967;52.070;8.596;2023-04-22T11:40:33;99563.72;;;25.41;33.50
55070;BME280;40967;52.070;8.596;2023-04-22T11:43:01;99566.97;;;25.57;33.34
55070;BME280;40967;52.070;8.596;2023-04-22T11:45:32;99564.59;;;25.66;32.87
55070;BME280;40967;52.070;8.596;2023-04-22T11:47:59;99561.84;;;25.88;33.18
55070;BME280;40967;52.070;8.596;2023-04-22T11:50:29;99559.91;;;25.99;32.99
55070;BME280;40967;52.070;8.596;2023-04-22T12:00:46;99573.44;;;26.14;31.75
55070;BME280;40967;52.070;8.596;2023-04-22T12:05:39;99571.41;;;25.94;31.55
55070;BME280;40967;52.070;8.596;2023-04-22T12:10:42;99573.75;;;25.74;31.77
55070;BME280;40967;52.070;8.596;2023-04-22T12:13:08;99566.56;;;25.62;31.62
55070;BME280;40967;52.070;8.596;2023-04-22T12:15:39;99562.56;;;25.56;31.89
55070;BME280;40967;52.070;8.596;2023-04-22T12:18:04;99558.56;;;25.40;32.06
55070;BME280;40967;52.070;8.596;2023-04-22T12:20:35;99550.22;;;25.36;32.21
55070;BME280;40967;52.070;8.596;2023-04-22T12:23:01;99548.16;;;25.33;32.76
55070;BME280;40967;52.070;8.596;2023-04-22T12:25:27;99549.81;;;25.38;33.19
55070;BME280;40967;52.070;8.596;2023-04-22T12:27:54;99526.47;;;25.63;32.70
55070;BME280;40967;52.070;8.596;2023-04-22T12:30:20;99541.19;;;25.71;32.97
55070;BME280;40967;52.070;8.596;2023-04-22T12:32:47;99535.25;;;25.83;32.43
55070;BME280;40967;52.070;8.596;2023-04-22T12:35:13;99538.88;;;26.05;31.92
55070;BME280;40967;52.070;8.596;2023-04-22T12:37:38;99536.91;;;26.23;31.66
55070;BME280;40967;52.070;8.596;2023-04-22T12:40:04;99534.91;;;26.41;31.29
55070;BME280;40967;52.070;8.596;2023-04-22T12:42:31;99521.00;;;26.27;30.96
55070;BME280;40967;52.070;8.596;2023-04-22T12:44:56;99526.56;;;26.30;30.87
55070;BME280;40967;52.070;8.596;2023-04-22T12:47:21;99530.94;;;26.38;30.75
55070;BME280;40967;52.070;8.596;2023-04-22T12:49:47;99511.47;;;26.38;31.23
55070;BME280;40967;52.070;8.596;2023-04-22T12:52:13;99525.78;;;26.26;31.08
55070;BME280;40967;52.070;8.596;2023-04-22T12:54:38;99517.84;;;26.21;30.91
55070;BME280;40967;52.070;8.596;2023-04-22T12:57:04;99511.06;;;26.12;31.02
55070;BME280;40967;52.070;8.596;2023-04-22T12:59:29;99508.69;;;26.10;31.17
55070;BME280;40967;52.070;8.596;2023-04-22T13:01:55;99508.28;;;26.15;31.05
55070;BME280;40967;52.070;8.596;2023-04-22T13:04:21;99495.19;;;26.23;31.28
55070;BME280;40967;52.070;8.596;2023-04-22T13:06:46;99499.19;;;26.04;31.25
55070;BME280;40967;52.070;8.596;2023-04-22T13:09:14;99500.28;;;25.78;30.80
55070;BME280;40967;52.070;8.596;2023-04-22T13:11:40;99507.84;;;25.71;31.06
55070;BME280;40967;52.070;8.596;2023-04-22T13:14:05;99521.31;;;25.58;31.32
55070;BME280;40967;52.070;8.596;2023-04-22T13:16:31;99511.75;;;25.38;31.09
55070;BME280;40967;52.070;8.596;2023-04-22T13:18:57;99498.19;;;25.23;31.27
55070;BME280;40967;52.070;8.596;2023-04-22T13:21:22;99501.31;;;25.18;31.70
55070;BME280;40967;52.070;8.596;2023-04-22T13:23:47;99503.31;;;25.14;31.91
55070;BME280;40967;52.070;8.596;2023-04-22T13:26:13;99493.31;;;24.99;32.03
55070;BME280;40967;52.070;8.596;2023-04-22T13:28:38;99494.94;;;25.03;32.01
55070;BME280;40967;52.070;8.596;2023-04-22T13:31:04;99495.34;;;25.05;32.69